Address 0xe2701cc262b07ee5065b1b49deff13a56a25bd53

 
 
Txn Hash
Block
From
To
Value [Txn Fee]
0x5f2cdb74f17a1a4aee73396b9f91178eeae074e638aab1ca0893d35b2dedf98b94609972021-07-25 8:42:028 hrs 40 mins ago0xe2701cc262b07ee5065b1b49deff13a56a25bd53OUT0x22b9acfc1ce6a942e1a534573d9e17141f2beb2a0.451056818436186 BNB0.000105
0x43aca73364b7a1f30b261c10cc802c52c08303f7f62b7a942b2856192630a15e94609652021-07-25 8:40:268 hrs 42 mins ago0xe2701cc262b07ee5065b1b49deff13a56a25bd53OUT PancakeSwap: Router v20 BNB0.00055277
0x80aded17bf456cffdc60225487aa52e50aa9dcbf0154587d6b39adcf5c4d556b94609292021-07-25 8:38:378 hrs 44 mins ago0xe2701cc262b07ee5065b1b49deff13a56a25bd53OUT BUSD-T Stablecoin0 BNB0.00022203
0x58221df84e5a6725ba8e1c2abaa5aaba7eefec2a04f2e1f0466f7dbb57cd707193239482021-07-20 14:07:425 days 3 hrs ago0xe2701cc262b07ee5065b1b49deff13a56a25bd53OUT PancakeSwap: Router v20 BNB0.00090882
0xc93e27c400c13d395d9c233cbf37d7ddef341ef0a65a37a1d59ba908576022a693239002021-07-20 14:05:185 days 3 hrs ago0xe2701cc262b07ee5065b1b49deff13a56a25bd53OUT 0xaaa7a10a8ee237ea61e8ac46c50a8db8bcc1baaa0 BNB0.00022558
0x0efcda73e22374f001655f8a10c8a0b43e43ded07cb1108428019ea41f3a725389853052021-07-08 19:48:2216 days 21 hrs ago0xe2701cc262b07ee5065b1b49deff13a56a25bd53OUT PancakeSwap: Main Staking Contract0 BNB0.000642045
0x097bd1d7e976854537e5826c18aa564a5a1e8f2763b5b0b93c5b59909f67e1d589852842021-07-08 19:47:1916 days 21 hrs ago0xe2701cc262b07ee5065b1b49deff13a56a25bd53OUT PancakeSwap: Router v22.071104140876775 BNB0.00098191
0x32ebd1318f376d52cd2206dbe31c558d4f777a05556236d198f482000bb70c7189852042021-07-08 19:43:1916 days 21 hrs ago0xe2701cc262b07ee5065b1b49deff13a56a25bd53OUT PancakeSwap: Router v22.08 BNB0.00067174
0x0ed396fbfc50bb3bc0427714be55624f3633dadc93323af6075936bbcb53a4bf89851432021-07-08 19:40:1616 days 21 hrs agoBinance: Hot Wallet 11 IN 0xe2701cc262b07ee5065b1b49deff13a56a25bd534.15838648 BNB0.00021
0x72511bdac9b35b15054e631447d88226311c6236692041a389a43a4a8538e30a89796012021-07-08 15:03:0917 days 2 hrs ago0xe2701cc262b07ee5065b1b49deff13a56a25bd53OUT PancakeSwap: Router v20.044353078578173 BNB0.000608365
0x033bfc47acb7707bdd54bac57e661daf702173a4ecddf54388ca570cb6f73a9089795592021-07-08 15:01:0317 days 2 hrs ago0xe2701cc262b07ee5065b1b49deff13a56a25bd53OUT PancakeSwap: Router v20 BNB0.000612495
0x76d8099bb0d9e5171b88e48fb154a7ac27d30e6dc97beeff50075ad27010e12f89795232021-07-08 14:59:1517 days 2 hrs ago0xe2701cc262b07ee5065b1b49deff13a56a25bd53OUT PancakeSwap: CAKE Token0 BNB0.00022215
0xca181565ce03037b73ee019af5b8a9d42c7527772c0d0b669a59c4ad6ffc79ad89795032021-07-08 14:58:1517 days 2 hrs ago0xe2701cc262b07ee5065b1b49deff13a56a25bd53OUT PancakeSwap: Router v20.015711865344883 BNB0.00059668
0xe3e90413e706d5ec45c5ebff386d3f1a3d23f95395c2907c1939d81ca8527d9089794762021-07-08 14:56:5417 days 2 hrs ago0xe2701cc262b07ee5065b1b49deff13a56a25bd53OUT PancakeSwap: Router v20 BNB0.00108445
0xad9550fba88a5359750b691bf15d2ad164991aa9b94348465d61b80e323cb7a789794612021-07-08 14:56:0917 days 2 hrs ago0xe2701cc262b07ee5065b1b49deff13a56a25bd53OUT PancakeSwap: Main Staking Contract0 BNB0.000677145
0x96041512a48ef5eb0884c15e7de9cf89fb3bc653c2f55fb7904ff6223eac579d89790402021-07-08 14:35:0617 days 2 hrs ago0xe2701cc262b07ee5065b1b49deff13a56a25bd53OUT PancakeSwap: Main Staking Contract0 BNB0.000641985
0x10387f9eeaf945cdb2b921bce6888ffde4893273f95cc49bbc1287d70ca8b4b289790262021-07-08 14:34:2417 days 2 hrs ago0xe2701cc262b07ee5065b1b49deff13a56a25bd53OUT PancakeSwap: Router v20.019088285 BNB0.001019245
0x1b2075611ed5cb4aa0ed68c458c7f3ba09365e6abc5ee6bfad68d1a23625ad1489789962021-07-08 14:32:5417 days 2 hrs ago0xe2701cc262b07ee5065b1b49deff13a56a25bd53OUT 0x03ff0ff224f904be3118461335064bb48df479380 BNB0.00022203
0x30918a3756237c4a7f047a32f85f17758096831b6236861727d84fae7e2cb42b89789592021-07-08 14:31:0317 days 2 hrs ago0xe2701cc262b07ee5065b1b49deff13a56a25bd53OUT PancakeSwap V2: ONE0 BNB0.00022221
0x7a45f1e416329226029c2a95b231223d29e94528ad55ad16a18bcdb93d81541d89789542021-07-08 14:30:4817 days 2 hrs ago0xe2701cc262b07ee5065b1b49deff13a56a25bd53OUT 0x58f876857a02d6762e0101bb5c46a8c1ed44dc160 BNB0.00022221
0x94a8290b859b16a2ced3869cb796274352b4c6e587fbbc42c64d9cdb2d0682ab89789362021-07-08 14:29:5417 days 2 hrs ago0xe2701cc262b07ee5065b1b49deff13a56a25bd53OUT PancakeSwap: Router v20.0302 BNB0.00067168
0xffb29df6590d5d9c11fc52e5014c640eafdd2916fdc4f98a9f4693062b62264789789152021-07-08 14:28:5117 days 2 hrs agoBinance: Hot Wallet 10 IN 0xe2701cc262b07ee5065b1b49deff13a56a25bd530.05130984 BNB0.00021
0xe11a3905a2bcfe4658ac791742ce6f7c9b5701d6895fd027a221de56c9ed9ed488885002021-07-05 10:48:2320 days 6 hrs ago0xe2701cc262b07ee5065b1b49deff13a56a25bd53OUT PancakeSwap: Router v20.53528823 BNB0.000683425
0x0a622c0629d9cb57895e1b7e4075e8af3f1e9de757740d30a36d7423728c2c9a88883272021-07-05 10:39:4420 days 6 hrs agoBinance: Hot Wallet 9 IN 0xe2701cc262b07ee5065b1b49deff13a56a25bd530.54528823 BNB0.00021
0x8de799657ffe05e58f47894598e2f6ed9c181e46a488ba282b0c1a72a2f9e91486657582021-06-27 15:37:5628 days 1 hr ago0xe2701cc262b07ee5065b1b49deff13a56a25bd53OUT0x22b9acfc1ce6a942e1a534573d9e17141f2beb2a0.148826893114289 BNB0.000105
[ Download CSV Export 
Latest 8 internal transactions
Parent Txn Hash Block From To Value
0x43aca73364b7a1f30b261c10cc802c52c08303f7f62b7a942b2856192630a15e94609652021-07-25 8:40:268 hrs 42 mins ago PancakeSwap: Router v20xe2701cc262b07ee5065b1b49deff13a56a25bd530.438692739312962511 BNB
0x033bfc47acb7707bdd54bac57e661daf702173a4ecddf54388ca570cb6f73a9089795592021-07-08 15:01:0317 days 2 hrs ago PancakeSwap: Router v20xe2701cc262b07ee5065b1b49deff13a56a25bd530.045784403578173762 BNB
0xe3e90413e706d5ec45c5ebff386d3f1a3d23f95395c2907c1939d81ca8527d9089794762021-07-08 14:56:5417 days 2 hrs ago PancakeSwap: Router v20xe2701cc262b07ee5065b1b49deff13a56a25bd530.019134690344883461 BNB
0x10387f9eeaf945cdb2b921bce6888ffde4893273f95cc49bbc1287d70ca8b4b289790262021-07-08 14:34:2417 days 2 hrs ago PancakeSwap: Router v20xe2701cc262b07ee5065b1b49deff13a56a25bd531 wei
0x8804e9daa9344b46f7a12ba52e9d6fbb6725761ae9e378786047e298857ecd5f86657062021-06-27 15:35:2028 days 1 hr ago PancakeSwap: Router v20xe2701cc262b07ee5065b1b49deff13a56a25bd530.113590933114289163 BNB
0xb3f545eb08d8180524cb683eda0613f50a7f8a8a09db5385c60e96678ac6a5e684839622021-06-21 7:34:4534 days 9 hrs ago PancakeSwap: Router v20xe2701cc262b07ee5065b1b49deff13a56a25bd530.002662753204649615 BNB
0x04b04e37695aa18c2a0b35c1426443db929a61012c02b7aa1cabbfa1be24c7ba84836742021-06-21 7:20:1234 days 10 hrs ago PancakeSwap: Router v20xe2701cc262b07ee5065b1b49deff13a56a25bd530.111464927717921626 BNB
0x458328e36dd00a9ac2285c30ec1f7121843e247e944ddcfef4cb7e0bdac4936082836642021-06-14 7:16:5341 days 10 hrs ago PancakeSwap: Router v20xe2701cc262b07ee5065b1b49deff13a56a25bd530.045178805514306614 BNB
[ Download CSV Export 
Loading

Contract Name:
0 BNB

Compiler Version
0

Optimization Enabled:
0 BNB

Other Settings:
-NA-
Block Transaction Gas Used Reward
Age Block Fee Address BC Fee Address Voting Power Jailed Incoming
Block Uncle Number Difficulty Gas Used Reward
Loading
Loading
Make sure to use the "Vote Down" button for any spammy posts, and the "Vote Up" for interesting conversations.